sensor_id;sensor_type;location;lat;lon;timestamp;temperature;humidity
3172;DHT22;1597;51.572;6.992;2022-09-09T00:04:30;16.50;99.90
3172;DHT22;1597;51.572;6.992;2022-09-09T00:07:38;16.50;99.90
3172;DHT22;1597;51.572;6.992;2022-09-09T00:13:30;16.50;99.90
3172;DHT22;1597;51.572;6.992;2022-09-09T00:16:21;16.50;99.90
3172;DHT22;1597;51.572;6.992;2022-09-09T00:22:15;16.60;99.90
3172;DHT22;1597;51.572;6.992;2022-09-09T00:25:14;16.60;99.90
3172;DHT22;1597;51.572;6.992;2022-09-09T00:27:48;16.60;99.90
3172;DHT22;1597;51.572;6.992;2022-09-09T00:30:20;16.60;99.90
3172;DHT22;1597;51.572;6.992;2022-09-09T00:32:53;16.70;99.90
3172;DHT22;1597;51.572;6.992;2022-09-09T00:35:36;16.70;99.90
3172;DHT22;1597;51.572;6.992;2022-09-09T00:38:55;16.70;99.90
3172;DHT22;1597;51.572;6.992;2022-09-09T00:47:25;16.70;99.90
3172;DHT22;1597;51.572;6.992;2022-09-09T00:56:12;16.60;99.90
3172;DHT22;1597;51.572;6.992;2022-09-09T00:58:43;16.50;99.90
3172;DHT22;1597;51.572;6.992;2022-09-09T01:01:18;16.50;99.90
3172;DHT22;1597;51.572;6.992;2022-09-09T01:03:53;16.50;99.90
3172;DHT22;1597;51.572;6.992;2022-09-09T01:06:30;16.50;99.90
3172;DHT22;1597;51.572;6.992;2022-09-09T01:09:36;16.60;99.90
3172;DHT22;1597;51.572;6.992;2022-09-09T01:12:16;16.60;99.90
3172;DHT22;1597;51.572;6.992;2022-09-09T01:15:08;16.60;99.90
3172;DHT22;1597;51.572;6.992;2022-09-09T01:20:39;16.60;99.90
3172;DHT22;1597;51.572;6.992;2022-09-09T01:26:35;16.50;99.90
3172;DHT22;1597;51.572;6.992;2022-09-09T01:29:08;16.50;99.90
3172;DHT22;1597;51.572;6.992;2022-09-09T01:32:00;16.60;99.90
3172;DHT22;1597;51.572;6.992;2022-09-09T01:34:45;16.50;99.90
3172;DHT22;1597;51.572;6.992;2022-09-09T01:37:12;16.60;99.90
3172;DHT22;1597;51.572;6.992;2022-09-09T01:39:41;16.60;99.90
3172;DHT22;1597;51.572;6.992;2022-09-09T01:42:11;16.60;99.90
3172;DHT22;1597;51.572;6.992;2022-09-09T01:44:39;16.60;99.90
3172;DHT22;1597;51.572;6.992;2022-09-09T01:47:06;16.60;99.90
3172;DHT22;1597;51.572;6.992;2022-09-09T01:49:32;16.60;99.90
3172;DHT22;1597;51.572;6.992;2022-09-09T01:51:58;16.50;99.90
3172;DHT22;1597;51.572;6.992;2022-09-09T01:54:27;16.60;99.90
3172;DHT22;1597;51.572;6.992;2022-09-09T02:02:59;16.70;99.90
3172;DHT22;1597;51.572;6.992;2022-09-09T02:05:39;16.70;99.90
3172;DHT22;1597;51.572;6.992;2022-09-09T02:08:26;16.70;99.90
3172;DHT22;1597;51.572;6.992;2022-09-09T02:11:06;16.70;99.90
3172;DHT22;1597;51.572;6.992;2022-09-09T02:13:36;16.70;99.90
3172;DHT22;1597;51.572;6.992;2022-09-09T02:16:08;16.60;99.90
3172;DHT22;1597;51.572;6.992;2022-09-09T02:21:28;16.70;99.90
3172;DHT22;1597;51.572;6.992;2022-09-09T02:23:57;16.60;99.90
3172;DHT22;1597;51.572;6.992;2022-09-09T02:26:25;16.60;99.90
3172;DHT22;1597;51.572;6.992;2022-09-09T02:28:55;16.60;99.90
3172;DHT22;1597;51.572;6.992;2022-09-09T02:31:23;16.60;99.90
3172;DHT22;1597;51.572;6.992;2022-09-09T02:33:57;16.60;99.90
3172;DHT22;1597;51.572;6.992;2022-09-09T02:36:27;16.50;99.90
3172;DHT22;1597;51.572;6.992;2022-09-09T02:38:58;16.50;99.90
3172;DHT22;1597;51.572;6.992;2022-09-09T02:41:43;16.50;99.90
3172;DHT22;1597;51.572;6.992;2022-09-09T02:44:11;16.50;99.90
3172;DHT22;1597;51.572;6.992;2022-09-09T02:50:17;16.60;99.90
3172;DHT22;1597;51.572;6.992;2022-09-09T02:52:42;16.70;99.90
3172;DHT22;1597;51.572;6.992;2022-09-09T02:55:41;16.70;99.90
3172;DHT22;1597;51.572;6.992;2022-09-09T02:58:27;16.60;99.90
3172;DHT22;1597;51.572;6.992;2022-09-09T03:00:53;16.70;99.90
3172;DHT22;1597;51.572;6.992;2022-09-09T03:03:22;16.70;99.90
3172;DHT22;1597;51.572;6.992;2022-09-09T03:05:49;16.70;99.90
3172;DHT22;1597;51.572;6.992;2022-09-09T03:08:15;16.70;99.90
3172;DHT22;1597;51.572;6.992;2022-09-09T03:10:41;16.70;99.90
3172;DHT22;1597;51.572;6.992;2022-09-09T03:13:08;16.70;99.90
3172;DHT22;1597;51.572;6.992;2022-09-09T03:15:34;16.70;99.90
3172;DHT22;1597;51.572;6.992;2022-09-09T03:18:01;16.80;99.90
3172;DHT22;1597;51.572;6.992;2022-09-09T03:20:28;16.80;99.90
3172;DHT22;1597;51.572;6.992;2022-09-09T03:22:55;16.80;99.90
3172;DHT22;1597;51.572;6.992;2022-09-09T03:25:22;16.70;99.90
3172;DHT22;1597;51.572;6.992;2022-09-09T03:27:50;16.70;99.90
3172;DHT22;1597;51.572;6.992;2022-09-09T03:30:18;16.70;99.90
3172;DHT22;1597;51.572;6.992;2022-09-09T03:32:44;16.60;99.90
3172;DHT22;1597;51.572;6.992;2022-09-09T03:35:10;16.60;99.90
3172;DHT22;1597;51.572;6.992;2022-09-09T03:37:36;16.60;99.90
3172;DHT22;1597;51.572;6.992;2022-09-09T03:40:02;16.60;99.90
3172;DHT22;1597;51.572;6.992;2022-09-09T03:42:29;16.60;99.90
3172;DHT22;1597;51.572;6.992;2022-09-09T03:44:56;16.60;99.90
3172;DHT22;1597;51.572;6.992;2022-09-09T03:47:23;16.60;99.90
3172;DHT22;1597;51.572;6.992;2022-09-09T03:49:49;16.60;99.90
3172;DHT22;1597;51.572;6.992;2022-09-09T03:52:15;16.60;99.90
3172;DHT22;1597;51.572;6.992;2022-09-09T03:54:42;16.60;99.90
3172;DHT22;1597;51.572;6.992;2022-09-09T03:57:09;16.60;99.90
3172;DHT22;1597;51.572;6.992;2022-09-09T03:59:36;16.60;99.90
3172;DHT22;1597;51.572;6.992;2022-09-09T04:02:03;16.60;99.90
3172;DHT22;1597;51.572;6.992;2022-09-09T04:04:29;16.60;99.90
3172;DHT22;1597;51.572;6.992;2022-09-09T04:06:55;16.60;99.90
3172;DHT22;1597;51.572;6.992;2022-09-09T04:09:21;16.50;99.90
3172;DHT22;1597;51.572;6.992;2022-09-09T04:11:47;16.50;99.90
3172;DHT22;1597;51.572;6.992;2022-09-09T04:14:12;16.50;99.90
3172;DHT22;1597;51.572;6.992;2022-09-09T04:16:38;16.50;99.90
3172;DHT22;1597;51.572;6.992;2022-09-09T04:19:05;16.50;99.90
3172;DHT22;1597;51.572;6.992;2022-09-09T04:21:32;16.50;99.90
3172;DHT22;1597;51.572;6.992;2022-09-09T04:23:58;16.50;99.90
3172;DHT22;1597;51.572;6.992;2022-09-09T04:26:23;16.50;99.90
3172;DHT22;1597;51.572;6.992;2022-09-09T04:28:49;16.50;99.90
3172;DHT22;1597;51.572;6.992;2022-09-09T04:31:21;16.50;99.90
3172;DHT22;1597;51.572;6.992;2022-09-09T04:33:49;16.60;99.90
3172;DHT22;1597;51.572;6.992;2022-09-09T04:36:16;16.50;99.90
3172;DHT22;1597;51.572;6.992;2022-09-09T04:38:43;16.50;99.90
3172;DHT22;1597;51.572;6.992;2022-09-09T04:41:10;16.50;99.90
3172;DHT22;1597;51.572;6.992;2022-09-09T04:43:37;16.60;99.90
3172;DHT22;1597;51.572;6.992;2022-09-09T04:46:04;16.60;99.90
3172;DHT22;1597;51.572;6.992;2022-09-09T04:48:31;16.60;99.90
3172;DHT22;1597;51.572;6.992;2022-09-09T04:51:02;16.60;99.90
3172;DHT22;1597;51.572;6.992;2022-09-09T04:53:32;16.60;99.90
3172;DHT22;1597;51.572;6.992;2022-09-09T04:58:32;16.60;99.90
3172;DHT22;1597;51.572;6.992;2022-09-09T05:01:19;16.70;99.90
3172;DHT22;1597;51.572;6.992;2022-09-09T05:03:47;16.70;99.90
3172;DHT22;1597;51.572;6.992;2022-09-09T05:06:15;16.70;99.90
3172;DHT22;1597;51.572;6.992;2022-09-09T05:08:43;16.80;99.90
3172;DHT22;1597;51.572;6.992;2022-09-09T05:11:30;16.80;99.90
3172;DHT22;1597;51.572;6.992;2022-09-09T05:13:57;16.70;99.90
3172;DHT22;1597;51.572;6.992;2022-09-09T05:16:24;16.80;99.90
3172;DHT22;1597;51.572;6.992;2022-09-09T05:18:50;16.80;99.90
3172;DHT22;1597;51.572;6.992;2022-09-09T05:21:20;16.70;99.90
3172;DHT22;1597;51.572;6.992;2022-09-09T05:23:48;16.80;99.90
3172;DHT22;1597;51.572;6.992;2022-09-09T05:26:16;16.80;99.90
3172;DHT22;1597;51.572;6.992;2022-09-09T05:28:43;16.80;99.90
3172;DHT22;1597;51.572;6.992;2022-09-09T05:31:12;16.80;99.90
3172;DHT22;1597;51.572;6.992;2022-09-09T05:33:41;16.90;99.90
3172;DHT22;1597;51.572;6.992;2022-09-09T05:36:13;16.90;99.90
3172;DHT22;1597;51.572;6.992;2022-09-09T05:38:40;16.90;99.90
3172;DHT22;1597;51.572;6.992;2022-09-09T05:41:07;16.90;99.90
3172;DHT22;1597;51.572;6.992;2022-09-09T05:43:33;16.90;99.90
3172;DHT22;1597;51.572;6.992;2022-09-09T05:46:05;16.90;99.90
3172;DHT22;1597;51.572;6.992;2022-09-09T05:48:34;16.90;99.90
3172;DHT22;1597;51.572;6.992;2022-09-09T05:51:03;16.90;99.90
3172;DHT22;1597;51.572;6.992;2022-09-09T05:53:30;17.00;99.90
3172;DHT22;1597;51.572;6.992;2022-09-09T05:56:08;17.00;99.90
3172;DHT22;1597;51.572;6.992;2022-09-09T05:58:36;17.00;99.90
3172;DHT22;1597;51.572;6.992;2022-09-09T06:01:07;17.00;99.90
3172;DHT22;1597;51.572;6.992;2022-09-09T06:03:40;17.00;99.90
3172;DHT22;1597;51.572;6.992;2022-09-09T06:06:09;17.00;99.90
3172;DHT22;1597;51.572;6.992;2022-09-09T06:08:39;17.00;99.90
3172;DHT22;1597;51.572;6.992;2022-09-09T06:11:07;17.00;99.90
3172;DHT22;1597;51.572;6.992;2022-09-09T06:13:34;17.00;99.90
3172;DHT22;1597;51.572;6.992;2022-09-09T06:16:03;17.10;99.90
3172;DHT22;1597;51.572;6.992;2022-09-09T06:18:29;17.10;99.90
3172;DHT22;1597;51.572;6.992;2022-09-09T06:21:01;17.10;99.90
3172;DHT22;1597;51.572;6.992;2022-09-09T06:23:32;17.20;99.90
3172;DHT22;1597;51.572;6.992;2022-09-09T06:26:12;17.10;99.90
3172;DHT22;1597;51.572;6.992;2022-09-09T06:28:46;17.20;99.90
3172;DHT22;1597;51.572;6.992;2022-09-09T06:31:16;17.20;99.90
3172;DHT22;1597;51.572;6.992;2022-09-09T06:33:43;17.20;99.90
3172;DHT22;1597;51.572;6.992;2022-09-09T06:36:30;17.30;99.90
3172;DHT22;1597;51.572;6.992;2022-09-09T06:38:58;17.30;99.90
3172;DHT22;1597;51.572;6.992;2022-09-09T06:41:30;17.40;99.90
3172;DHT22;1597;51.572;6.992;2022-09-09T06:43:57;17.40;99.90
3172;DHT22;1597;51.572;6.992;2022-09-09T06:46:25;17.40;99.90
3172;DHT22;1597;51.572;6.992;2022-09-09T06:48:57;17.40;99.90
3172;DHT22;1597;51.572;6.992;2022-09-09T06:51:28;17.50;99.90
3172;DHT22;1597;51.572;6.992;2022-09-09T06:53:58;17.50;99.90
3172;DHT22;1597;51.572;6.992;2022-09-09T06:56:25;17.60;99.90
3172;DHT22;1597;51.572;6.992;2022-09-09T06:58:58;17.60;99.90
3172;DHT22;1597;51.572;6.992;2022-09-09T07:01:29;17.60;99.90
3172;DHT22;1597;51.572;6.992;2022-09-09T07:03:58;17.70;99.90
3172;DHT22;1597;51.572;6.992;2022-09-09T07:06:31;17.70;99.90
3172;DHT22;1597;51.572;6.992;2022-09-09T07:09:03;17.70;99.90
3172;DHT22;1597;51.572;6.992;2022-09-09T07:11:36;17.70;99.90
3172;DHT22;1597;51.572;6.992;2022-09-09T07:14:04;17.80;99.90
3172;DHT22;1597;51.572;6.992;2022-09-09T07:16:30;17.80;99.90
3172;DHT22;1597;51.572;6.992;2022-09-09T07:18:57;17.90;99.90
3172;DHT22;1597;51.572;6.992;2022-09-09T07:21:27;17.90;99.90
3172;DHT22;1597;51.572;6.992;2022-09-09T07:23:54;17.90;99.90
3172;DHT22;1597;51.572;6.992;2022-09-09T07:26:23;17.90;99.90
3172;DHT22;1597;51.572;6.992;2022-09-09T07:28:51;17.90;99.90
3172;DHT22;1597;51.572;6.992;2022-09-09T07:31:25;17.90;99.90
3172;DHT22;1597;51.572;6.992;2022-09-09T07:33:59;17.90;99.90
3172;DHT22;1597;51.572;6.992;2022-09-09T07:36:27;17.90;99.90
3172;DHT22;1597;51.572;6.992;2022-09-09T07:39:04;17.90;99.90
3172;DHT22;1597;51.572;6.992;2022-09-09T07:41:44;18.00;99.90
3172;DHT22;1597;51.572;6.992;2022-09-09T07:44:14;18.10;99.90
3172;DHT22;1597;51.572;6.992;2022-09-09T07:46:41;18.20;99.90
3172;DHT22;1597;51.572;6.992;2022-09-09T07:49:07;18.30;99.90
3172;DHT22;1597;51.572;6.992;2022-09-09T07:51:36;18.30;99.90
3172;DHT22;1597;51.572;6.992;2022-09-09T07:54:13;18.30;99.90
3172;DHT22;1597;51.572;6.992;2022-09-09T07:56:41;18.40;99.90
3172;DHT22;1597;51.572;6.992;2022-09-09T07:59:08;18.40;99.90
3172;DHT22;1597;51.572;6.992;2022-09-09T08:01:40;18.50;99.90
3172;DHT22;1597;51.572;6.992;2022-09-09T08:04:16;18.50;99.90
3172;DHT22;1597;51.572;6.992;2022-09-09T08:06:45;18.50;99.90
3172;DHT22;1597;51.572;6.992;2022-09-09T08:09:18;18.40;99.90
3172;DHT22;1597;51.572;6.992;2022-09-09T08:11:45;18.30;99.90
3172;DHT22;1597;51.572;6.992;2022-09-09T08:14:11;18.30;99.90
3172;DHT22;1597;51.572;6.992;2022-09-09T08:16:40;18.30;99.90
3172;DHT22;1597;51.572;6.992;2022-09-09T08:19:11;18.30;99.90
3172;DHT22;1597;51.572;6.992;2022-09-09T08:21:39;18.20;97.80
3172;DHT22;1597;51.572;6.992;2022-09-09T08:24:06;18.20;97.00
3172;DHT22;1597;51.572;6.992;2022-09-09T08:26:39;18.10;97.40
3172;DHT22;1597;51.572;6.992;2022-09-09T08:29:08;18.10;96.90
3172;DHT22;1597;51.572;6.992;2022-09-09T08:34:11;18.10;99.40
3172;DHT22;1597;51.572;6.992;2022-09-09T08:36:42;18.10;98.30
3172;DHT22;1597;51.572;6.992;2022-09-09T08:39:11;18.20;95.90
3172;DHT22;1597;51.572;6.992;2022-09-09T08:44:56;18.30;94.20
3172;DHT22;1597;51.572;6.992;2022-09-09T08:51:18;18.30;95.90
3172;DHT22;1597;51.572;6.992;2022-09-09T08:53:48;18.30;90.00
3172;DHT22;1597;51.572;6.992;2022-09-09T08:56:18;18.30;88.70
3172;DHT22;1597;51.572;6.992;2022-09-09T08:58:52;18.40;83.70
3172;DHT22;1597;51.572;6.992;2022-09-09T09:01:32;18.50;75.80
3172;DHT22;1597;51.572;6.992;2022-09-09T09:06:56;18.70;60.50
3172;DHT22;1597;51.572;6.992;2022-09-09T09:09:57;18.80;61.10
3172;DHT22;1597;51.572;6.992;2022-09-09T09:12:41;18.90;55.70
3172;DHT22;1597;51.572;6.992;2022-09-09T09:15:30;19.00;62.40
3172;DHT22;1597;51.572;6.992;2022-09-09T09:18:03;19.10;48.60
3172;DHT22;1597;51.572;6.992;2022-09-09T09:23:26;19.30;44.00
3172;DHT22;1597;51.572;6.992;2022-09-09T09:26:01;19.40;35.40
3172;DHT22;1597;51.572;6.992;2022-09-09T09:28:31;19.50;22.60
3172;DHT22;1597;51.572;6.992;2022-09-09T09:31:04;19.60;23.00
3172;DHT22;1597;51.572;6.992;2022-09-09T09:36:12;19.70;20.40
3172;DHT22;1597;51.572;6.992;2022-09-09T09:38:55;19.70;22.40
3172;DHT22;1597;51.572;6.992;2022-09-09T09:43:59;19.70;21.30
3172;DHT22;1597;51.572;6.992;2022-09-09T09:46:27;19.70;20.90
3172;DHT22;1597;51.572;6.992;2022-09-09T09:49:04;19.70;20.60
3172;DHT22;1597;51.572;6.992;2022-09-09T09:51:32;19.70;21.90
3172;DHT22;1597;51.572;6.992;2022-09-09T09:54:14;19.70;21.60
3172;DHT22;1597;51.572;6.992;2022-09-09T09:56:45;19.80;19.50
3172;DHT22;1597;51.572;6.992;2022-09-09T10:01:53;19.90;19.90
3172;DHT22;1597;51.572;6.992;2022-09-09T10:04:22;19.70;22.40
3172;DHT22;1597;51.572;6.992;2022-09-09T10:06:50;19.70;22.70
3172;DHT22;1597;51.572;6.992;2022-09-09T10:09:30;19.70;26.50
3172;DHT22;1597;51.572;6.992;2022-09-09T10:23:36;19.60;25.60
3172;DHT22;1597;51.572;6.992;2022-09-09T10:26:33;19.50;26.40
3172;DHT22;1597;51.572;6.992;2022-09-09T10:31:54;19.50;22.70
3172;DHT22;1597;51.572;6.992;2022-09-09T10:40:45;19.80;5.10
3172;DHT22;1597;51.572;6.992;2022-09-09T10:42:59;19.90;4.80
3172;DHT22;1597;51.572;6.992;2022-09-09T10:49:27;20.20;1.00
3172;DHT22;1597;51.572;6.992;2022-09-09T11:00:02;20.20;1.00
3172;DHT22;1597;51.572;6.992;2022-09-09T11:02:33;20.00;1.00
3172;DHT22;1597;51.572;6.992;2022-09-09T11:08:18;19.90;1.00
3172;DHT22;1597;51.572;6.992;2022-09-09T11:18:53;19.90;5.60
3172;DHT22;1597;51.572;6.992;2022-09-09T11:21:30;19.80;4.40
3172;DHT22;1597;51.572;6.992;2022-09-09T11:24:08;19.80;6.20
3172;DHT22;1597;51.572;6.992;2022-09-09T11:26:58;19.90;7.30
3172;DHT22;1597;51.572;6.992;2022-09-09T11:33:02;20.00;5.30
3172;DHT22;1597;51.572;6.992;2022-09-09T11:38:25;20.10;6.50
3172;DHT22;1597;51.572;6.992;2022-09-09T11:41:02;20.00;5.90
3172;DHT22;1597;51.572;6.992;2022-09-09T11:46:19;20.00;6.70
3172;DHT22;1597;51.572;6.992;2022-09-09T11:49:01;20.00;8.70
3172;DHT22;1597;51.572;6.992;2022-09-09T11:51:30;20.00;7.20
3172;DHT22;1597;51.572;6.992;2022-09-09T11:53:58;20.00;9.90
3172;DHT22;1597;51.572;6.992;2022-09-09T11:56:33;20.00;4.40
3172;DHT22;1597;51.572;6.992;2022-09-09T12:02:12;20.10;6.00
3172;DHT22;1597;51.572;6.992;2022-09-09T12:04:54;20.10;5.50
3172;DHT22;1597;51.572;6.992;2022-09-09T12:07:57;20.20;5.60
3172;DHT22;1597;51.572;6.992;2022-09-09T12:10:30;20.40;3.90
3172;DHT22;1597;51.572;6.992;2022-09-09T12:13:17;20.40;2.40
3172;DHT22;1597;51.572;6.992;2022-09-09T12:15:50;20.40;3.60
3172;DHT22;1597;51.572;6.992;2022-09-09T12:18:38;20.40;5.40
3172;DHT22;1597;51.572;6.992;2022-09-09T12:24:13;20.60;3.90
3172;DHT22;1597;51.572;6.992;2022-09-09T12:26:58;20.60;6.50
3172;DHT22;1597;51.572;6.992;2022-09-09T12:32:24;20.60;8.30
3172;DHT22;1597;51.572;6.992;2022-09-09T12:34:53;20.60;5.30
3172;DHT22;1597;51.572;6.992;2022-09-09T12:37:38;20.50;9.40
3172;DHT22;1597;51.572;6.992;2022-09-09T12:40:23;20.50;7.90
3172;DHT22;1597;51.572;6.992;2022-09-09T12:42:51;20.40;8.20
3172;DHT22;1597;51.572;6.992;2022-09-09T12:45:21;20.30;4.80
3172;DHT22;1597;51.572;6.992;2022-09-09T12:47:53;20.30;5.70
3172;DHT22;1597;51.572;6.992;2022-09-09T12:50:52;20.30;6.40
3172;DHT22;1597;51.572;6.992;2022-09-09T12:53:26;20.20;7.80
3172;DHT22;1597;51.572;6.992;2022-09-09T12:56:06;20.20;9.00
3172;DHT22;1597;51.572;6.992;2022-09-09T12:58:36;20.20;9.30
3172;DHT22;1597;51.572;6.992;2022-09-09T13:01:03;20.20;9.50
3172;DHT22;1597;51.572;6.992;2022-09-09T13:03:31;20.20;12.40
3172;DHT22;1597;51.572;6.992;2022-09-09T13:06:10;20.00;91.10
3172;DHT22;1597;51.572;6.992;2022-09-09T13:08:43;19.60;99.90
3172;DHT22;1597;51.572;6.992;2022-09-09T13:11:13;19.10;99.90
3172;DHT22;1597;51.572;6.992;2022-09-09T13:13:52;18.80;99.90
3172;DHT22;1597;51.572;6.992;2022-09-09T13:16:29;18.50;99.90
3172;DHT22;1597;51.572;6.992;2022-09-09T13:18:58;18.20;99.90
3172;DHT22;1597;51.572;6.992;2022-09-09T13:21:34;18.20;99.90
3172;DHT22;1597;51.572;6.992;2022-09-09T13:24:01;18.10;99.90
3172;DHT22;1597;51.572;6.992;2022-09-09T13:26:29;18.00;99.90
3172;DHT22;1597;51.572;6.992;2022-09-09T13:29:13;17.80;99.90
3172;DHT22;1597;51.572;6.992;2022-09-09T13:31:43;17.80;99.90
3172;DHT22;1597;51.572;6.992;2022-09-09T13:34:29;17.60;99.90
3172;DHT22;1597;51.572;6.992;2022-09-09T13:37:02;17.50;99.90
3172;DHT22;1597;51.572;6.992;2022-09-09T13:39:37;17.50;99.90
3172;DHT22;1597;51.572;6.992;2022-09-09T13:42:03;17.50;99.90
3172;DHT22;1597;51.572;6.992;2022-09-09T13:44:40;17.50;99.90
3172;DHT22;1597;51.572;6.992;2022-09-09T13:47:18;17.60;99.90
3172;DHT22;1597;51.572;6.992;2022-09-09T13:49:46;17.60;99.90
3172;DHT22;1597;51.572;6.992;2022-09-09T13:52:14;17.70;99.90
3172;DHT22;1597;51.572;6.992;2022-09-09T13:54:42;17.80;99.90
3172;DHT22;1597;51.572;6.992;2022-09-09T13:57:22;17.90;99.90
3172;DHT22;1597;51.572;6.992;2022-09-09T13:59:49;18.00;99.90
3172;DHT22;1597;51.572;6.992;2022-09-09T14:02:16;18.00;99.90
3172;DHT22;1597;51.572;6.992;2022-09-09T14:04:42;18.10;99.90
3172;DHT22;1597;51.572;6.992;2022-09-09T14:07:16;18.20;99.90
3172;DHT22;1597;51.572;6.992;2022-09-09T14:09:43;18.30;99.90
3172;DHT22;1597;51.572;6.992;2022-09-09T14:12:14;18.40;99.90
3172;DHT22;1597;51.572;6.992;2022-09-09T14:14:41;18.50;99.90
3172;DHT22;1597;51.572;6.992;2022-09-09T14:17:10;18.60;99.90
3172;DHT22;1597;51.572;6.992;2022-09-09T14:19:36;18.70;99.90
3172;DHT22;1597;51.572;6.992;2022-09-09T14:22:02;18.90;99.90
3172;DHT22;1597;51.572;6.992;2022-09-09T14:24:28;19.00;99.90
3172;DHT22;1597;51.572;6.992;2022-09-09T14:26:54;19.00;99.90
3172;DHT22;1597;51.572;6.992;2022-09-09T14:29:20;19.10;99.90
3172;DHT22;1597;51.572;6.992;2022-09-09T14:31:46;19.10;99.90
3172;DHT22;1597;51.572;6.992;2022-09-09T14:34:13;19.10;99.90
3172;DHT22;1597;51.572;6.992;2022-09-09T14:36:40;19.10;99.90
3172;DHT22;1597;51.572;6.992;2022-09-09T14:39:07;19.10;99.90
3172;DHT22;1597;51.572;6.992;2022-09-09T14:41:33;19.10;99.90
3172;DHT22;1597;51.572;6.992;2022-09-09T14:43:59;19.10;99.90
3172;DHT22;1597;51.572;6.992;2022-09-09T14:46:25;19.20;99.90
3172;DHT22;1597;51.572;6.992;2022-09-09T14:48:52;19.20;99.90
3172;DHT22;1597;51.572;6.992;2022-09-09T14:51:23;19.10;99.90
3172;DHT22;1597;51.572;6.992;2022-09-09T14:53:55;19.00;99.90
3172;DHT22;1597;51.572;6.992;2022-09-09T14:56:25;19.00;99.90
3172;DHT22;1597;51.572;6.992;2022-09-09T14:58:57;18.90;99.90
3172;DHT22;1597;51.572;6.992;2022-09-09T15:01:26;18.80;99.90
3172;DHT22;1597;51.572;6.992;2022-09-09T15:03:54;18.70;99.90
3172;DHT22;1597;51.572;6.992;2022-09-09T15:06:26;18.60;99.90
3172;DHT22;1597;51.572;6.992;2022-09-09T15:08:54;18.50;99.90
3172;DHT22;1597;51.572;6.992;2022-09-09T15:11:23;18.30;99.90
3172;DHT22;1597;51.572;6.992;2022-09-09T15:13:51;18.10;99.90
3172;DHT22;1597;51.572;6.992;2022-09-09T15:16:21;17.80;99.90
3172;DHT22;1597;51.572;6.992;2022-09-09T15:18:51;17.60;99.90
3172;DHT22;1597;51.572;6.992;2022-09-09T15:21:21;17.50;99.90
3172;DHT22;1597;51.572;6.992;2022-09-09T15:23:48;17.30;99.90
3172;DHT22;1597;51.572;6.992;2022-09-09T15:26:15;17.10;99.90
3172;DHT22;1597;51.572;6.992;2022-09-09T15:28:43;17.00;99.90
3172;DHT22;1597;51.572;6.992;2022-09-09T15:31:19;16.90;99.90
3172;DHT22;1597;51.572;6.992;2022-09-09T15:33:51;16.80;99.90
3172;DHT22;1597;51.572;6.992;2022-09-09T15:36:23;16.70;99.90
3172;DHT22;1597;51.572;6.992;2022-09-09T15:38:51;16.70;99.90
3172;DHT22;1597;51.572;6.992;2022-09-09T15:41:18;16.80;99.90
3172;DHT22;1597;51.572;6.992;2022-09-09T15:43:46;16.80;99.90
3172;DHT22;1597;51.572;6.992;2022-09-09T15:48:43;16.90;99.90
3172;DHT22;1597;51.572;6.992;2022-09-09T15:51:10;17.00;99.90
3172;DHT22;1597;51.572;6.992;2022-09-09T15:53:40;17.00;99.90
3172;DHT22;1597;51.572;6.992;2022-09-09T15:56:06;17.00;99.90
3172;DHT22;1597;51.572;6.992;2022-09-09T15:58:33;17.60;99.90
3172;DHT22;1597;51.572;6.992;2022-09-09T16:01:03;17.10;99.90
3172;DHT22;1597;51.572;6.992;2022-09-09T16:03:37;17.10;99.90
3172;DHT22;1597;51.572;6.992;2022-09-09T16:06:05;17.20;99.90
3172;DHT22;1597;51.572;6.992;2022-09-09T16:08:32;17.30;99.90
3172;DHT22;1597;51.572;6.992;2022-09-09T16:11:27;17.40;99.90
3172;DHT22;1597;51.572;6.992;2022-09-09T16:13:58;17.50;99.90
3172;DHT22;1597;51.572;6.992;2022-09-09T16:16:28;17.60;99.90
3172;DHT22;1597;51.572;6.992;2022-09-09T16:18:59;17.60;99.90
3172;DHT22;1597;51.572;6.992;2022-09-09T16:21:31;17.70;99.90
3172;DHT22;1597;51.572;6.992;2022-09-09T16:24:00;17.70;99.90
3172;DHT22;1597;51.572;6.992;2022-09-09T16:26:28;17.80;99.90
3172;DHT22;1597;51.572;6.992;2022-09-09T16:28:56;17.80;99.90
3172;DHT22;1597;51.572;6.992;2022-09-09T16:31:27;17.80;99.90
3172;DHT22;1597;51.572;6.992;2022-09-09T16:33:53;17.70;99.90
3172;DHT22;1597;51.572;6.992;2022-09-09T16:36:22;17.80;99.90
3172;DHT22;1597;51.572;6.992;2022-09-09T16:39:00;17.70;99.90
3172;DHT22;1597;51.572;6.992;2022-09-09T16:41:28;17.70;99.90
3172;DHT22;1597;51.572;6.992;2022-09-09T16:44:00;17.80;99.90
3172;DHT22;1597;51.572;6.992;2022-09-09T16:46:29;17.80;99.90
3172;DHT22;1597;51.572;6.992;2022-09-09T16:48:56;17.70;99.90
3172;DHT22;1597;51.572;6.992;2022-09-09T16:51:26;17.70;99.90
3172;DHT22;1597;51.572;6.992;2022-09-09T16:53:54;17.70;99.90
3172;DHT22;1597;51.572;6.992;2022-09-09T16:56:24;17.70;99.90
3172;DHT22;1597;51.572;6.992;2022-09-09T16:58:57;17.70;99.90
3172;DHT22;1597;51.572;6.992;2022-09-09T17:01:25;17.80;99.90
3172;DHT22;1597;51.572;6.992;2022-09-09T17:03:59;17.70;99.90
3172;DHT22;1597;51.572;6.992;2022-09-09T17:06:30;17.70;99.90
3172;DHT22;1597;51.572;6.992;2022-09-09T17:09:02;17.60;99.90
3172;DHT22;1597;51.572;6.992;2022-09-09T17:11:33;17.60;99.90
3172;DHT22;1597;51.572;6.992;2022-09-09T17:14:00;17.60;99.90
3172;DHT22;1597;51.572;6.992;2022-09-09T17:16:28;17.60;99.90
3172;DHT22;1597;51.572;6.992;2022-09-09T17:18:56;17.60;99.90
3172;DHT22;1597;51.572;6.992;2022-09-09T17:21:25;17.60;99.90
3172;DHT22;1597;51.572;6.992;2022-09-09T17:23:52;17.60;99.90
3172;DHT22;1597;51.572;6.992;2022-09-09T17:26:21;17.60;99.90
3172;DHT22;1597;51.572;6.992;2022-09-09T17:28:48;17.60;99.90
3172;DHT22;1597;51.572;6.992;2022-09-09T17:31:16;17.60;99.90
3172;DHT22;1597;51.572;6.992;2022-09-09T17:33:47;17.60;99.90
3172;DHT22;1597;51.572;6.992;2022-09-09T17:36:19;17.60;99.90
3172;DHT22;1597;51.572;6.992;2022-09-09T17:38:52;17.60;99.90
3172;DHT22;1597;51.572;6.992;2022-09-09T17:41:31;17.60;99.90
3172;DHT22;1597;51.572;6.992;2022-09-09T17:43:58;17.60;99.90
3172;DHT22;1597;51.572;6.992;2022-09-09T17:46:30;17.60;99.90
3172;DHT22;1597;51.572;6.992;2022-09-09T17:49:01;17.50;99.90
3172;DHT22;1597;51.572;6.992;2022-09-09T17:51:30;17.50;99.90
3172;DHT22;1597;51.572;6.992;2022-09-09T17:54:09;17.50;99.90
3172;DHT22;1597;51.572;6.992;2022-09-09T17:56:39;17.50;99.90
3172;DHT22;1597;51.572;6.992;2022-09-09T17:59:07;17.50;99.90
3172;DHT22;1597;51.572;6.992;2022-09-09T18:01:37;17.50;99.90
3172;DHT22;1597;51.572;6.992;2022-09-09T18:04:06;17.50;99.90
3172;DHT22;1597;51.572;6.992;2022-09-09T18:06:39;17.60;99.90
3172;DHT22;1597;51.572;6.992;2022-09-09T18:09:11;17.60;99.90
3172;DHT22;1597;51.572;6.992;2022-09-09T18:11:41;17.60;99.90
3172;DHT22;1597;51.572;6.992;2022-09-09T18:14:14;17.60;99.90
3172;DHT22;1597;51.572;6.992;2022-09-09T18:16:42;17.60;99.90
3172;DHT22;1597;51.572;6.992;2022-09-09T18:19:10;17.60;99.90
3172;DHT22;1597;51.572;6.992;2022-09-09T18:21:39;17.60;99.90
3172;DHT22;1597;51.572;6.992;2022-09-09T18:24:06;17.60;99.90
3172;DHT22;1597;51.572;6.992;2022-09-09T18:26:34;17.50;99.90
3172;DHT22;1597;51.572;6.992;2022-09-09T18:29:05;17.60;99.90
3172;DHT22;1597;51.572;6.992;2022-09-09T18:31:33;17.60;99.90
3172;DHT22;1597;51.572;6.992;2022-09-09T18:34:01;17.50;99.90
3172;DHT22;1597;51.572;6.992;2022-09-09T18:36:36;17.60;99.90
3172;DHT22;1597;51.572;6.992;2022-09-09T18:39:05;17.50;99.90
3172;DHT22;1597;51.572;6.992;2022-09-09T18:41:39;17.50;99.90